createdAt,value
2018-05-17T00:01:50.078Z,4.40
2018-05-17T00:04:20.114Z,4.97
2018-05-17T00:06:46.841Z,6.93
2018-05-17T00:09:13.475Z,5.77
2018-05-17T00:11:40.057Z,7.63
2018-05-17T00:14:12.988Z,6.23
2018-05-17T00:16:39.857Z,6.00
2018-05-17T00:19:06.504Z,6.50
2018-05-17T00:21:33.123Z,4.73
2018-05-17T00:24:04.864Z,4.20
2018-05-17T00:26:32.025Z,6.37
2018-05-17T00:28:58.657Z,8.47
2018-05-17T00:31:25.413Z,3.90
2018-05-17T00:33:59.118Z,5.53
2018-05-17T00:36:25.824Z,2.80
2018-05-17T00:38:52.515Z,5.50
2018-05-17T00:41:19.278Z,4.57
2018-05-17T00:43:47.183Z,7.63
2018-05-17T00:46:13.746Z,6.77
2018-05-17T00:48:40.280Z,6.80
2018-05-17T00:51:07.719Z,8.43
2018-05-17T00:53:35.381Z,6.07
2018-05-17T00:56:02.075Z,7.40
2018-05-17T00:58:28.753Z,4.20
2018-05-17T01:00:55.417Z,5.07
2018-05-17T01:03:25.338Z,6.37
2018-05-17T01:05:52.297Z,8.13
2018-05-17T01:08:18.891Z,6.90
2018-05-17T01:10:45.655Z,6.27
2018-05-17T01:13:16.295Z,5.27
2018-05-17T01:15:43.330Z,5.00
2018-05-17T01:18:10.044Z,5.37
2018-05-17T01:20:36.592Z,5.77
2018-05-17T01:23:03.400Z,7.07
2018-05-17T01:25:30.172Z,4.37
2018-05-17T01:27:56.810Z,4.60
2018-05-17T01:30:23.357Z,1.93
2018-05-17T01:32:50.012Z,2.07
2018-05-17T01:35:16.697Z,3.70
2018-05-17T01:37:55.897Z,3.63
2018-05-17T01:40:22.558Z,3.53
2018-05-17T01:42:49.322Z,1.77
2018-05-17T01:45:15.957Z,2.67
2018-05-17T01:47:42.634Z,6.43
2018-05-17T01:50:09.280Z,5.30
2018-05-17T01:52:36.530Z,3.27
2018-05-17T01:55:04.311Z,8.47
2018-05-17T01:57:31.009Z,3.70
2018-05-17T01:59:57.700Z,1.50
2018-05-17T02:02:24.335Z,5.13
2018-05-17T02:05:01.194Z,5.20
2018-05-17T02:07:28.030Z,3.70
2018-05-17T02:09:54.682Z,6.63
2018-05-17T02:12:21.301Z,5.63
2018-05-17T02:14:51.392Z,4.83
2018-05-17T02:17:18.084Z,5.27
2018-05-17T02:19:44.791Z,6.40
2018-05-17T02:22:11.378Z,4.83
2018-05-17T02:24:42.598Z,5.83
2018-05-17T02:27:09.154Z,10.20
2018-05-17T02:29:35.792Z,6.10
2018-05-17T02:32:02.327Z,8.53
2018-05-17T02:34:30.677Z,6.17
2018-05-17T02:36:57.457Z,5.40
2018-05-17T02:39:24.747Z,5.47
2018-05-17T02:41:51.456Z,7.03
2018-05-17T02:44:19.432Z,7.70
2018-05-17T02:46:46.058Z,4.40
2018-05-17T02:49:12.804Z,5.07
2018-05-17T02:51:39.330Z,4.20
2018-05-17T02:54:22.857Z,6.67
2018-05-17T02:56:49.433Z,6.70
2018-05-17T02:59:16.158Z,7.60
2018-05-17T03:01:43.204Z,7.90
2018-05-17T03:04:13.755Z,6.73
2018-05-17T03:06:40.330Z,5.30
2018-05-17T03:09:06.961Z,5.20
2018-05-17T03:11:33.632Z,9.10
2018-05-17T03:14:03.864Z,9.47
2018-05-17T03:16:30.781Z,4.50
2018-05-17T03:18:57.470Z,6.07
2018-05-17T03:21:24.862Z,6.57
2018-05-17T03:23:52.673Z,4.50
2018-05-17T03:26:19.962Z,3.40
2018-05-17T03:28:46.595Z,7.70
2018-05-17T03:31:13.198Z,12.47
2018-05-17T03:33:43.902Z,10.27
2018-05-17T03:36:10.582Z,5.53
2018-05-17T03:38:37.308Z,5.97
2018-05-17T03:41:04.046Z,6.77
2018-05-17T03:43:30.738Z,8.27
2018-05-17T03:45:58.050Z,8.63
2018-05-17T03:48:25.665Z,8.93
2018-05-17T03:50:52.304Z,6.47
2018-05-17T03:53:18.906Z,5.90
2018-05-17T03:55:45.782Z,6.03
2018-05-17T03:58:12.697Z,4.90
2018-05-17T04:00:51.304Z,5.63
2018-05-17T04:03:33.573Z,4.73
2018-05-17T04:06:12.098Z,4.80
2018-05-17T04:08:38.926Z,10.30
2018-05-17T04:11:05.788Z,4.27
2018-05-17T04:13:36.117Z,4.90
2018-05-17T04:16:02.878Z,3.53
2018-05-17T04:18:29.564Z,4.17
2018-05-17T04:20:56.284Z,10.90
2018-05-17T04:23:23.085Z,6.70
2018-05-17T04:25:49.817Z,4.47
2018-05-17T04:28:16.420Z,3.73
2018-05-17T04:30:43.665Z,6.87
2018-05-17T04:33:16.984Z,3.83
2018-05-17T04:35:43.736Z,5.93
2018-05-17T04:38:10.300Z,5.17
2018-05-17T04:40:36.993Z,8.07
2018-05-17T04:43:03.777Z,7.43
2018-05-17T04:45:30.532Z,4.77
2018-05-17T04:47:57.396Z,4.47
2018-05-17T04:50:24.092Z,3.97
2018-05-17T04:52:54.681Z,5.27
2018-05-17T04:55:21.877Z,3.53
2018-05-17T04:57:48.592Z,7.13
2018-05-17T05:00:15.244Z,3.10
2018-05-17T05:02:48.592Z,3.73
2018-05-17T05:05:15.375Z,2.83
2018-05-17T05:07:42.221Z,5.40
2018-05-17T05:10:09.181Z,5.57
2018-05-17T05:12:37.096Z,7.47
2018-05-17T05:15:04.321Z,3.67
2018-05-17T05:17:31.468Z,1.80
2018-05-17T05:19:58.059Z,7.53
2018-05-17T05:22:28.253Z,1.47
2018-05-17T05:24:55.984Z,3.83
2018-05-17T05:27:22.654Z,5.23
2018-05-17T05:29:49.560Z,4.47
2018-05-17T05:32:16.167Z,2.10
2018-05-17T05:34:42.846Z,1.97
2018-05-17T05:37:09.540Z,2.93
2018-05-17T05:39:36.625Z,4.70
2018-05-17T05:42:03.277Z,3.13
2018-05-17T05:44:34.090Z,2.73
2018-05-17T05:47:01.215Z,1.30
2018-05-17T05:49:28.679Z,3.27
2018-05-17T05:51:55.617Z,2.93
2018-05-17T05:54:37.120Z,5.67
2018-05-17T05:57:04.357Z,9.50
2018-05-17T05:59:31.304Z,3.53
2018-05-17T06:01:58.505Z,3.80
2018-05-17T06:04:39.701Z,1.97
2018-05-17T06:07:06.477Z,3.30
2018-05-17T06:09:33.421Z,2.87
2018-05-17T06:12:00.372Z,1.43
2018-05-17T06:14:32.434Z,3.67
2018-05-17T06:16:59.634Z,4.60
2018-05-17T06:19:26.582Z,3.27
2018-05-17T06:21:54.037Z,4.63
2018-05-17T06:24:25.260Z,1.80
2018-05-17T06:26:53.080Z,4.00
2018-05-17T06:29:19.994Z,3.03
2018-05-17T06:31:47.450Z,3.37
2018-05-17T06:34:17.730Z,2.03
2018-05-17T06:36:44.671Z,2.37
2018-05-17T06:39:26.466Z,4.73
2018-05-17T06:41:53.921Z,5.80
2018-05-17T06:44:25.802Z,2.40
2018-05-17T06:46:52.678Z,5.20
2018-05-17T06:49:19.875Z,3.93
2018-05-17T06:51:46.826Z,6.83
2018-05-17T06:54:13.702Z,8.07
2018-05-17T06:56:41.274Z,5.00
2018-05-17T06:59:08.428Z,3.77
2018-05-17T07:01:35.374Z,8.70
2018-05-17T07:04:03.453Z,7.27
2018-05-17T07:06:31.054Z,6.57
2018-05-17T07:08:57.726Z,4.23
2018-05-17T07:11:24.464Z,6.60
2018-05-17T07:13:51.107Z,14.80
2018-05-17T07:16:17.781Z,10.20
2018-05-17T07:18:45.238Z,6.97
2018-05-17T07:21:12.094Z,10.53
2018-05-17T07:23:45.138Z,3.60
2018-05-17T07:26:11.867Z,8.67
2018-05-17T07:28:38.527Z,7.20
2018-05-17T07:31:05.128Z,4.83
2018-05-17T07:33:32.730Z,8.53
2018-05-17T07:35:59.438Z,6.50
2018-05-17T07:38:26.156Z,8.60
2018-05-17T07:40:52.906Z,3.53
2018-05-17T07:43:23.182Z,7.27
2018-05-17T07:45:50.069Z,8.77
2018-05-17T07:48:16.747Z,7.53
2018-05-17T07:50:43.244Z,6.93
2018-05-17T07:53:21.183Z,8.43
2018-05-17T07:55:48.509Z,9.43
2018-05-17T07:58:15.106Z,6.57
2018-05-17T08:00:41.844Z,10.90
2018-05-17T08:03:16.936Z,6.60
2018-05-17T08:05:43.684Z,7.77
2018-05-17T08:08:10.415Z,6.50
2018-05-17T08:10:37.130Z,7.20
2018-05-17T08:13:14.417Z,5.77
2018-05-17T08:15:41.454Z,7.83
2018-05-17T08:18:08.653Z,7.10
2018-05-17T08:20:35.344Z,4.93
2018-05-17T08:23:08.938Z,10.60
2018-05-17T08:25:35.670Z,7.43
2018-05-17T08:28:02.187Z,7.13
2018-05-17T08:30:29.354Z,9.40
2018-05-17T08:33:07.025Z,7.43
2018-05-17T08:35:33.807Z,6.73
2018-05-17T08:38:00.857Z,9.97
2018-05-17T08:40:27.590Z,6.73
2018-05-17T08:45:51.332Z,9.27
2018-05-17T08:48:18.018Z,10.07
2018-05-17T08:50:44.674Z,10.93
2018-05-17T08:53:15.226Z,9.97
2018-05-17T08:55:41.846Z,10.77
2018-05-17T08:58:08.488Z,10.47
2018-05-17T09:00:35.215Z,8.00
2018-05-17T09:03:02.900Z,7.23
2018-05-17T09:05:29.605Z,9.60
2018-05-17T09:07:56.420Z,9.97
2018-05-17T09:10:23.086Z,8.43
2018-05-17T09:12:53.013Z,9.10
2018-05-17T09:15:20.022Z,8.00
2018-05-17T09:17:46.740Z,14.70
2018-05-17T09:20:13.529Z,7.47
2018-05-17T09:22:47.063Z,10.33
2018-05-17T09:25:14.056Z,9.17
2018-05-17T09:27:40.605Z,7.73
2018-05-17T09:30:07.261Z,9.13
2018-05-17T09:32:37.070Z,12.63
2018-05-17T09:35:03.678Z,11.03
2018-05-17T09:37:30.274Z,12.20
2018-05-17T09:39:56.805Z,9.80
2018-05-17T09:42:28.515Z,10.23
2018-05-17T09:44:55.444Z,14.10
2018-05-17T09:47:22.140Z,8.50
2018-05-17T09:49:48.797Z,10.40
2018-05-17T09:52:16.508Z,10.50
2018-05-17T09:54:43.229Z,13.43
2018-05-17T09:57:09.821Z,18.20
2018-05-17T09:59:36.466Z,12.07
2018-05-17T10:02:08.858Z,9.10
2018-05-17T10:04:35.494Z,10.13
2018-05-17T10:07:02.248Z,14.50
2018-05-17T10:09:28.851Z,13.83
2018-05-17T10:12:02.040Z,10.90
2018-05-17T10:14:28.742Z,8.87
2018-05-17T10:16:55.462Z,9.40
2018-05-17T10:19:22.200Z,8.73
2018-05-17T10:21:52.601Z,14.00
2018-05-17T10:24:19.394Z,7.90
2018-05-17T10:26:46.083Z,13.27
2018-05-17T10:29:12.925Z,12.97
2018-05-17T10:31:39.601Z,7.63
2018-05-17T10:34:06.271Z,7.97
2018-05-17T10:36:33.026Z,5.80
2018-05-17T10:38:59.613Z,10.90
2018-05-17T10:41:26.460Z,7.03
2018-05-17T10:43:56.988Z,8.10
2018-05-17T10:46:23.619Z,10.30
2018-05-17T10:48:50.685Z,10.07
2018-05-17T10:51:17.278Z,7.83
2018-05-17T10:53:47.888Z,9.90
2018-05-17T10:56:14.547Z,10.87
2018-05-17T10:58:41.522Z,8.90
2018-05-17T11:01:08.052Z,7.73
2018-05-17T11:03:38.383Z,7.13
2018-05-17T11:06:05.005Z,10.13
2018-05-17T11:08:31.732Z,11.23
2018-05-17T11:10:58.551Z,8.90
2018-05-17T11:13:29.851Z,12.03
2018-05-17T11:15:56.750Z,8.70
2018-05-17T11:18:23.328Z,9.67
2018-05-17T11:20:50.112Z,8.33
2018-05-17T11:23:31.497Z,11.70
2018-05-17T11:25:58.235Z,8.53
2018-05-17T11:28:24.837Z,5.70
2018-05-17T11:30:51.746Z,9.33
2018-05-17T11:33:18.386Z,7.90
2018-05-17T11:35:45.021Z,11.33
2018-05-17T11:38:11.692Z,6.73
2018-05-17T11:40:38.381Z,7.20
2018-05-17T11:43:09.163Z,7.90
2018-05-17T11:45:35.975Z,4.97
2018-05-17T11:48:02.710Z,4.17
2018-05-17T11:50:29.410Z,8.53
2018-05-17T11:52:58.933Z,6.33
2018-05-17T11:55:25.570Z,7.93
2018-05-17T11:57:52.068Z,6.27
2018-05-17T12:00:18.723Z,5.53
2018-05-17T12:02:59.779Z,6.47
2018-05-17T12:05:26.422Z,5.00
2018-05-17T12:07:53.345Z,6.50
2018-05-17T12:10:20.330Z,4.00
2018-05-17T12:12:53.810Z,8.17
2018-05-17T12:15:20.451Z,5.47
2018-05-17T12:17:47.564Z,5.50
2018-05-17T12:20:14.467Z,3.97
2018-05-17T12:22:41.501Z,7.80
2018-05-17T12:25:08.237Z,6.27
2018-05-17T12:27:35.305Z,7.77
2018-05-17T12:30:02.079Z,6.33
2018-05-17T12:32:35.868Z,7.73
2018-05-17T12:35:03.001Z,6.50
2018-05-17T12:37:29.665Z,6.53
2018-05-17T12:39:56.682Z,8.23
2018-05-17T12:42:24.849Z,13.13
2018-05-17T12:44:51.606Z,9.80
2018-05-17T12:47:18.557Z,15.00
2018-05-17T12:49:45.243Z,9.83
2018-05-17T12:52:11.897Z,11.97
2018-05-17T12:54:38.941Z,14.23
2018-05-17T12:57:05.633Z,6.10
2018-05-17T12:59:32.269Z,11.47
2018-05-17T13:02:02.136Z,11.30
2018-05-17T13:04:28.874Z,9.20
2018-05-17T13:06:55.783Z,8.33
2018-05-17T13:09:22.404Z,17.27
2018-05-17T13:11:50.563Z,9.73
2018-05-17T13:14:17.203Z,12.67
2018-05-17T13:16:43.876Z,11.57
2018-05-17T13:19:10.586Z,9.57
2018-05-17T13:21:38.381Z,10.83
2018-05-17T13:24:04.939Z,8.70
2018-05-17T13:26:31.729Z,8.77
2018-05-17T13:28:58.405Z,7.87
2018-05-17T13:31:25.234Z,10.57
2018-05-17T13:33:51.958Z,15.27
2018-05-17T13:36:18.665Z,10.77
2018-05-17T13:38:45.330Z,10.77
2018-05-17T13:41:12.080Z,11.23
2018-05-17T13:43:38.657Z,15.63
2018-05-17T13:46:05.077Z,12.77
2018-05-17T13:48:31.708Z,11.80
2018-05-17T13:50:58.246Z,10.70
2018-05-17T13:53:28.659Z,8.23
2018-05-17T13:55:55.580Z,8.20
2018-05-17T13:58:22.306Z,8.97
2018-05-17T14:00:48.854Z,9.93
2018-05-17T14:03:32.937Z,9.67
2018-05-17T14:05:59.604Z,11.10
2018-05-17T14:08:26.262Z,8.43
2018-05-17T14:10:52.853Z,14.67
2018-05-17T14:13:23.190Z,9.47
2018-05-17T14:15:50.086Z,11.07
2018-05-17T14:18:17.258Z,11.63
2018-05-17T14:20:44.225Z,14.63
2018-05-17T14:23:24.387Z,12.60
2018-05-17T14:25:51.113Z,10.70
2018-05-17T14:28:17.766Z,8.17
2018-05-17T14:30:44.397Z,12.60
2018-05-17T14:33:11.286Z,11.63
2018-05-17T14:35:38.127Z,12.83
2018-05-17T14:38:04.829Z,11.50
2018-05-17T14:40:32.337Z,11.30
2018-05-17T14:42:59.989Z,10.57
2018-05-17T14:45:27.802Z,10.73
2018-05-17T14:47:54.556Z,10.77
2018-05-17T14:50:21.118Z,12.33
2018-05-17T14:52:51.678Z,14.87
2018-05-17T14:55:19.004Z,12.57
2018-05-17T14:57:45.587Z,9.30
2018-05-17T15:00:12.255Z,9.53
2018-05-17T15:02:43.782Z,8.20
2018-05-17T15:05:10.447Z,10.80
2018-05-17T15:07:37.031Z,13.43
2018-05-17T15:10:03.583Z,12.73
2018-05-17T15:12:30.626Z,10.47
2018-05-17T15:14:57.239Z,8.97
2018-05-17T15:17:23.834Z,12.57
2018-05-17T15:19:50.632Z,11.03
2018-05-17T15:22:22.838Z,14.67
2018-05-17T15:24:49.587Z,15.00
2018-05-17T15:27:16.241Z,18.33
2018-05-17T15:29:42.852Z,11.70
2018-05-17T15:32:16.898Z,11.63
2018-05-17T15:34:43.550Z,9.30
2018-05-17T15:37:10.196Z,12.03
2018-05-17T15:39:36.873Z,13.10
2018-05-17T15:42:03.858Z,12.70
2018-05-17T15:44:30.676Z,16.30
2018-05-17T15:46:57.340Z,17.07
2018-05-17T15:49:24.068Z,14.43
2018-05-17T15:51:56.430Z,29.00
2018-05-17T15:54:23.170Z,14.83
2018-05-17T15:56:49.853Z,11.53
2018-05-17T15:59:16.578Z,13.57
2018-05-17T16:01:58.153Z,13.53
2018-05-17T16:04:25.115Z,15.60
2018-05-17T16:06:51.689Z,16.70
2018-05-17T16:09:18.346Z,17.43
2018-05-17T16:11:45.055Z,17.63
2018-05-17T16:14:11.853Z,32.07
2018-05-17T16:16:38.592Z,25.23
2018-05-17T16:19:05.569Z,17.90
2018-05-17T16:21:33.431Z,20.30
2018-05-17T16:24:00.091Z,15.93
2018-05-17T16:26:27.091Z,18.47
2018-05-17T16:28:53.848Z,18.53
2018-05-17T16:31:27.745Z,12.50
2018-05-17T16:33:54.494Z,14.70
2018-05-17T16:36:21.018Z,17.20
2018-05-17T16:38:47.751Z,15.97
2018-05-17T16:41:21.320Z,13.47
2018-05-17T16:43:47.914Z,15.30
2018-05-17T16:46:14.423Z,14.93
2018-05-17T16:48:41.178Z,16.43
2018-05-17T16:51:13.424Z,25.57
2018-05-17T16:53:40.131Z,20.20
2018-05-17T16:56:08.209Z,15.33
2018-05-17T16:58:35.089Z,11.83
2018-05-17T17:01:07.602Z,13.37
2018-05-17T17:03:34.653Z,18.93
2018-05-17T17:06:01.704Z,12.13
2018-05-17T17:08:28.927Z,14.20
2018-05-17T17:11:03.721Z,15.53
2018-05-17T17:13:31.261Z,19.80
2018-05-17T17:15:58.299Z,17.03
2018-05-17T17:18:25.747Z,12.83
2018-05-17T17:20:56.440Z,13.87
2018-05-17T17:23:23.471Z,15.87
2018-05-17T17:25:50.578Z,13.63
2018-05-17T17:28:17.867Z,17.80
2018-05-17T17:30:46.048Z,14.30
2018-05-17T17:33:12.678Z,14.17
2018-05-17T17:35:39.419Z,17.13
2018-05-17T17:38:06.271Z,13.50
2018-05-17T17:40:43.753Z,16.80
2018-05-17T17:43:10.612Z,12.17
2018-05-17T17:45:37.217Z,18.77
2018-05-17T17:48:03.774Z,14.03
2018-05-17T17:50:31.509Z,18.03
2018-05-17T17:52:57.969Z,17.13
2018-05-17T17:55:24.677Z,14.17
2018-05-17T17:57:51.291Z,17.20
2018-05-17T18:00:18.365Z,15.70
2018-05-17T18:02:45.115Z,20.13
2018-05-17T18:05:11.993Z,15.90
2018-05-17T18:07:38.822Z,12.20
2018-05-17T18:10:05.529Z,12.53
2018-05-17T18:12:33.459Z,12.50
2018-05-17T18:15:00.072Z,10.50
2018-05-17T18:17:29.134Z,10.03
2018-05-17T18:19:55.941Z,26.90
2018-05-17T18:22:26.687Z,12.43
2018-05-17T18:24:53.469Z,11.57
2018-05-17T18:27:19.974Z,11.83
2018-05-17T18:29:46.639Z,11.73
2018-05-17T18:32:13.565Z,11.37
2018-05-17T18:34:40.314Z,17.10
2018-05-17T18:37:07.695Z,16.17
2018-05-17T18:39:34.391Z,13.40
2018-05-17T18:42:02.471Z,14.87
2018-05-17T18:44:29.778Z,19.83
2018-05-17T18:46:56.542Z,18.73
2018-05-17T18:49:24.149Z,19.70
2018-05-17T18:51:51.144Z,26.07
2018-05-17T18:54:17.776Z,22.20
2018-05-17T18:56:44.657Z,18.03
2018-05-17T18:59:11.266Z,19.20
2018-05-17T19:01:38.421Z,24.10
2018-05-17T19:04:05.081Z,24.57
2018-05-17T19:06:31.895Z,20.07
2018-05-17T19:08:59.346Z,18.33
2018-05-17T19:11:36.905Z,19.50
2018-05-17T19:14:04.215Z,21.97
2018-05-17T19:16:30.898Z,14.23
2018-05-17T19:18:57.566Z,12.10
2018-05-17T19:21:27.803Z,13.80
2018-05-17T19:23:54.592Z,13.17
2018-05-17T19:26:21.328Z,14.13
2018-05-17T19:28:48.383Z,14.90
2018-05-17T19:31:15.176Z,14.03
2018-05-17T19:33:41.790Z,13.83
2018-05-17T19:36:08.811Z,11.10
2018-05-17T19:38:35.572Z,11.57
2018-05-17T19:41:22.315Z,11.10
2018-05-17T19:43:48.902Z,12.77
2018-05-17T19:46:16.117Z,14.33
2018-05-17T19:48:42.791Z,14.07
2018-05-17T19:58:22.606Z,27.83
2018-05-17T20:00:49.186Z,20.33
2018-05-17T20:03:15.834Z,20.33
2018-05-17T20:05:43.178Z,17.73
2018-05-17T20:08:09.819Z,17.90
2018-05-17T20:10:36.648Z,20.00
2018-05-17T20:13:03.366Z,21.60
2018-05-17T20:15:30.294Z,17.23
2018-05-17T20:17:57.022Z,16.93
2018-05-17T20:20:23.592Z,18.10
2018-05-17T20:22:50.269Z,15.70
2018-05-17T20:25:19.211Z,13.07
2018-05-17T20:27:46.271Z,13.33
2018-05-17T20:30:12.987Z,12.37
2018-05-17T20:32:39.942Z,13.57
2018-05-17T20:35:06.871Z,13.37
2018-05-17T20:37:33.550Z,19.37
2018-05-17T20:40:00.267Z,16.30
2018-05-17T20:42:26.876Z,18.23
2018-05-17T20:44:54.082Z,16.20
2018-05-17T20:47:20.708Z,15.67
2018-05-17T20:49:47.843Z,15.17
2018-05-17T20:52:15.183Z,14.57
2018-05-17T20:54:42.990Z,14.43
2018-05-17T20:57:09.869Z,17.40
2018-05-17T20:59:36.560Z,14.03
2018-05-17T21:02:03.183Z,11.07
2018-05-17T21:04:35.902Z,15.13
2018-05-17T21:07:02.533Z,11.97
2018-05-17T21:09:29.165Z,15.47
2018-05-17T21:11:55.904Z,13.27
2018-05-17T21:14:22.693Z,13.43
2018-05-17T21:16:49.426Z,20.33
2018-05-17T21:19:16.269Z,15.17
2018-05-17T21:21:43.225Z,12.27
2018-05-17T21:24:14.430Z,10.13
2018-05-17T21:26:41.482Z,10.53
2018-05-17T21:29:08.318Z,9.03
2018-05-17T21:31:35.021Z,10.13
2018-05-17T21:34:02.843Z,14.87
2018-05-17T21:36:29.429Z,12.07
2018-05-17T21:38:56.163Z,8.13
2018-05-17T21:41:22.790Z,8.53
2018-05-17T21:43:49.530Z,9.50
2018-05-17T21:46:16.753Z,6.13
2018-05-17T21:48:43.453Z,8.20
2018-05-17T21:51:10.058Z,8.07
2018-05-17T21:53:37.838Z,11.70
2018-05-17T21:56:04.797Z,7.23
2018-05-17T21:58:31.257Z,10.23
2018-05-17T22:00:57.966Z,6.87
2018-05-17T22:03:28.046Z,4.03
2018-05-17T22:05:54.595Z,6.27
2018-05-17T22:08:21.387Z,4.57
2018-05-17T22:10:48.357Z,5.73
2018-05-17T22:13:16.519Z,5.10
2018-05-17T22:15:43.237Z,5.80
2018-05-17T22:18:09.871Z,9.63
2018-05-17T22:20:36.565Z,5.70
2018-05-17T22:23:03.174Z,6.33
2018-05-17T22:25:31.430Z,11.50
2018-05-17T22:27:58.143Z,4.57
2018-05-17T22:30:24.698Z,6.53
2018-05-17T22:32:51.278Z,5.00
2018-05-17T22:35:23.369Z,5.43
2018-05-17T22:37:50.069Z,7.47
2018-05-17T22:40:16.643Z,4.27
2018-05-17T22:42:43.395Z,4.70
2018-05-17T22:45:10.729Z,6.07
2018-05-17T22:47:38.066Z,5.73
2018-05-17T22:50:04.684Z,6.93
2018-05-17T22:52:31.865Z,6.03
2018-05-17T22:54:58.565Z,7.60
2018-05-17T22:57:37.221Z,7.23
2018-05-17T23:00:03.673Z,8.07
2018-05-17T23:02:30.264Z,8.77
2018-05-17T23:04:57.779Z,7.70
2018-05-17T23:07:25.066Z,12.13
2018-05-17T23:09:51.720Z,9.77
2018-05-17T23:12:18.293Z,7.47
2018-05-17T23:14:48.758Z,9.90
2018-05-17T23:17:16.154Z,9.37
2018-05-17T23:19:42.970Z,8.53
2018-05-17T23:22:10.244Z,8.90
2018-05-17T23:24:40.186Z,7.40
2018-05-17T23:27:06.838Z,11.30
2018-05-17T23:29:33.553Z,9.63
2018-05-17T23:32:00.105Z,9.43
2018-05-17T23:34:33.239Z,8.87
2018-05-17T23:36:59.839Z,8.73
2018-05-17T23:39:26.505Z,8.80
2018-05-17T23:41:53.153Z,6.30
2018-05-17T23:44:20.378Z,6.97
2018-05-17T23:46:46.992Z,7.43
2018-05-17T23:49:13.705Z,8.23
2018-05-17T23:51:40.423Z,9.50
2018-05-17T23:54:08.449Z,7.77
2018-05-17T23:56:36.634Z,8.10
2018-05-17T23:59:03.260Z,9.90
